sensor_id;sensor_type;location;lat;lon;timestamp;P1;durP1;ratioP1;P2;durP2;ratioP2
29280;SDS011;25048;49.590;11.026;2024-01-10T00:00:56;13.17;;;5.53;;
29280;SDS011;25048;49.590;11.026;2024-01-10T00:03:24;18.87;;;5.80;;
29280;SDS011;25048;49.590;11.026;2024-01-10T00:05:51;11.30;;;5.37;;
29280;SDS011;25048;49.590;11.026;2024-01-10T00:08:19;18.73;;;5.83;;
29280;SDS011;25048;49.590;11.026;2024-01-10T00:10:47;14.47;;;5.83;;
29280;SDS011;25048;49.590;11.026;2024-01-10T00:13:15;16.77;;;6.07;;
29280;SDS011;25048;49.590;11.026;2024-01-10T00:15:42;15.47;;;6.00;;
29280;SDS011;25048;49.590;11.026;2024-01-10T00:18:10;16.57;;;5.80;;
29280;SDS011;25048;49.590;11.026;2024-01-10T00:20:37;15.63;;;6.03;;
29280;SDS011;25048;49.590;11.026;2024-01-10T00:23:05;12.83;;;5.30;;
29280;SDS011;25048;49.590;11.026;2024-01-10T00:25:33;14.87;;;5.53;;
29280;SDS011;25048;49.590;11.026;2024-01-10T00:28:00;15.60;;;5.83;;
29280;SDS011;25048;49.590;11.026;2024-01-10T00:30:28;17.47;;;7.00;;
29280;SDS011;25048;49.590;11.026;2024-01-10T00:32:55;12.23;;;4.97;;
29280;SDS011;25048;49.590;11.026;2024-01-10T00:35:23;16.87;;;6.03;;
29280;SDS011;25048;49.590;11.026;2024-01-10T00:37:51;19.70;;;6.63;;
29280;SDS011;25048;49.590;11.026;2024-01-10T00:40:18;12.53;;;5.40;;
29280;SDS011;25048;49.590;11.026;2024-01-10T00:42:47;13.50;;;6.03;;
29280;SDS011;25048;49.590;11.026;2024-01-10T00:45:15;12.50;;;5.60;;
29280;SDS011;25048;49.590;11.026;2024-01-10T00:47:43;11.73;;;5.07;;
29280;SDS011;25048;49.590;11.026;2024-01-10T00:50:10;13.67;;;5.70;;
29280;SDS011;25048;49.590;11.026;2024-01-10T00:52:38;12.03;;;5.33;;
29280;SDS011;25048;49.590;11.026;2024-01-10T00:55:06;13.93;;;5.87;;
29280;SDS011;25048;49.590;11.026;2024-01-10T00:57:34;14.60;;;5.80;;
29280;SDS011;25048;49.590;11.026;2024-01-10T01:00:01;12.80;;;5.77;;
29280;SDS011;25048;49.590;11.026;2024-01-10T01:02:29;13.93;;;6.07;;
29280;SDS011;25048;49.590;11.026;2024-01-10T01:04:57;13.03;;;5.50;;
29280;SDS011;25048;49.590;11.026;2024-01-10T01:07:24;17.00;;;6.23;;
29280;SDS011;25048;49.590;11.026;2024-01-10T01:09:52;15.77;;;5.80;;
29280;SDS011;25048;49.590;11.026;2024-01-10T01:12:20;13.77;;;5.60;;
29280;SDS011;25048;49.590;11.026;2024-01-10T01:14:47;15.17;;;5.40;;
29280;SDS011;25048;49.590;11.026;2024-01-10T01:17:15;17.33;;;6.97;;
29280;SDS011;25048;49.590;11.026;2024-01-10T01:19:42;14.87;;;5.50;;
29280;SDS011;25048;49.590;11.026;2024-01-10T01:22:10;17.23;;;5.77;;
29280;SDS011;25048;49.590;11.026;2024-01-10T01:24:37;15.10;;;5.57;;
29280;SDS011;25048;49.590;11.026;2024-01-10T01:27:05;13.00;;;5.70;;
29280;SDS011;25048;49.590;11.026;2024-01-10T01:29:32;16.23;;;6.23;;
29280;SDS011;25048;49.590;11.026;2024-01-10T01:32:00;14.30;;;6.37;;
29280;SDS011;25048;49.590;11.026;2024-01-10T01:34:27;16.63;;;5.70;;
29280;SDS011;25048;49.590;11.026;2024-01-10T01:36:55;11.87;;;5.37;;
29280;SDS011;25048;49.590;11.026;2024-01-10T01:39:22;17.23;;;5.43;;
29280;SDS011;25048;49.590;11.026;2024-01-10T01:41:50;13.93;;;5.93;;
29280;SDS011;25048;49.590;11.026;2024-01-10T01:44:18;15.47;;;5.70;;
29280;SDS011;25048;49.590;11.026;2024-01-10T01:46:45;15.33;;;6.03;;
29280;SDS011;25048;49.590;11.026;2024-01-10T01:49:14;13.90;;;5.53;;
29280;SDS011;25048;49.590;11.026;2024-01-10T01:51:41;13.60;;;5.93;;
29280;SDS011;25048;49.590;11.026;2024-01-10T01:54:10;14.00;;;5.60;;
29280;SDS011;25048;49.590;11.026;2024-01-10T01:56:37;12.53;;;5.13;;
29280;SDS011;25048;49.590;11.026;2024-01-10T01:59:06;13.37;;;5.53;;
29280;SDS011;25048;49.590;11.026;2024-01-10T02:01:34;15.00;;;5.20;;
29280;SDS011;25048;49.590;11.026;2024-01-10T02:04:02;12.37;;;5.23;;
29280;SDS011;25048;49.590;11.026;2024-01-10T02:06:30;14.67;;;6.20;;
29280;SDS011;25048;49.590;11.026;2024-01-10T02:08:57;16.10;;;5.60;;
29280;SDS011;25048;49.590;11.026;2024-01-10T02:11:25;13.10;;;5.83;;
29280;SDS011;25048;49.590;11.026;2024-01-10T02:13:53;10.73;;;5.17;;
29280;SDS011;25048;49.590;11.026;2024-01-10T02:16:21;14.90;;;5.30;;
29280;SDS011;25048;49.590;11.026;2024-01-10T02:18:49;13.80;;;5.53;;
29280;SDS011;25048;49.590;11.026;2024-01-10T02:21:20;11.67;;;5.17;;
29280;SDS011;25048;49.590;11.026;2024-01-10T02:23:48;14.33;;;5.73;;
29280;SDS011;25048;49.590;11.026;2024-01-10T02:26:16;12.60;;;5.73;;
29280;SDS011;25048;49.590;11.026;2024-01-10T02:28:44;12.17;;;5.43;;
29280;SDS011;25048;49.590;11.026;2024-01-10T02:31:11;13.73;;;5.53;;
29280;SDS011;25048;49.590;11.026;2024-01-10T02:33:39;14.70;;;5.23;;
29280;SDS011;25048;49.590;11.026;2024-01-10T02:36:06;15.63;;;5.53;;
29280;SDS011;25048;49.590;11.026;2024-01-10T02:38:34;13.03;;;5.93;;
29280;SDS011;25048;49.590;11.026;2024-01-10T02:41:01;11.57;;;5.33;;
29280;SDS011;25048;49.590;11.026;2024-01-10T02:43:29;14.10;;;5.07;;
29280;SDS011;25048;49.590;11.026;2024-01-10T02:45:56;11.73;;;5.27;;
29280;SDS011;25048;49.590;11.026;2024-01-10T02:48:25;15.37;;;5.90;;
29280;SDS011;25048;49.590;11.026;2024-01-10T02:50:52;13.00;;;5.33;;
29280;SDS011;25048;49.590;11.026;2024-01-10T02:53:21;11.77;;;4.67;;
29280;SDS011;25048;49.590;11.026;2024-01-10T02:55:49;13.07;;;5.30;;
29280;SDS011;25048;49.590;11.026;2024-01-10T02:58:17;13.90;;;5.90;;
29280;SDS011;25048;49.590;11.026;2024-01-10T03:00:46;12.03;;;5.10;;
29280;SDS011;25048;49.590;11.026;2024-01-10T03:03:14;11.40;;;5.03;;
29280;SDS011;25048;49.590;11.026;2024-01-10T03:05:41;11.63;;;5.30;;
29280;SDS011;25048;49.590;11.026;2024-01-10T03:08:09;12.40;;;5.33;;
29280;SDS011;25048;49.590;11.026;2024-01-10T03:10:36;8.73;;;4.73;;
29280;SDS011;25048;49.590;11.026;2024-01-10T03:13:04;13.50;;;5.10;;
29280;SDS011;25048;49.590;11.026;2024-01-10T03:15:31;13.30;;;5.13;;
29280;SDS011;25048;49.590;11.026;2024-01-10T03:17:59;16.03;;;5.20;;
29280;SDS011;25048;49.590;11.026;2024-01-10T03:20:26;12.37;;;4.90;;
29280;SDS011;25048;49.590;11.026;2024-01-10T03:22:54;9.13;;;4.30;;
29280;SDS011;25048;49.590;11.026;2024-01-10T03:25:21;11.73;;;4.70;;
29280;SDS011;25048;49.590;11.026;2024-01-10T03:27:49;15.30;;;5.57;;
29280;SDS011;25048;49.590;11.026;2024-01-10T03:30:16;11.90;;;5.17;;
29280;SDS011;25048;49.590;11.026;2024-01-10T03:32:45;12.80;;;5.30;;
29280;SDS011;25048;49.590;11.026;2024-01-10T03:35:13;15.43;;;5.13;;
29280;SDS011;25048;49.590;11.026;2024-01-10T03:37:40;13.50;;;5.30;;
29280;SDS011;25048;49.590;11.026;2024-01-10T03:40:08;15.53;;;5.00;;
29280;SDS011;25048;49.590;11.026;2024-01-10T03:42:36;10.77;;;4.53;;
29280;SDS011;25048;49.590;11.026;2024-01-10T03:45:03;14.33;;;5.53;;
29280;SDS011;25048;49.590;11.026;2024-01-10T03:47:32;15.37;;;5.40;;
29280;SDS011;25048;49.590;11.026;2024-01-10T03:49:59;13.90;;;4.67;;
29280;SDS011;25048;49.590;11.026;2024-01-10T03:52:27;12.80;;;5.00;;
29280;SDS011;25048;49.590;11.026;2024-01-10T03:54:54;11.33;;;5.47;;
29280;SDS011;25048;49.590;11.026;2024-01-10T03:57:23;17.07;;;5.47;;
29280;SDS011;25048;49.590;11.026;2024-01-10T03:59:50;14.10;;;5.10;;
29280;SDS011;25048;49.590;11.026;2024-01-10T04:02:18;9.93;;;4.53;;
29280;SDS011;25048;49.590;11.026;2024-01-10T04:04:45;14.90;;;5.07;;
29280;SDS011;25048;49.590;11.026;2024-01-10T04:07:13;12.30;;;5.20;;
29280;SDS011;25048;49.590;11.026;2024-01-10T04:09:40;9.60;;;4.80;;
29280;SDS011;25048;49.590;11.026;2024-01-10T04:12:08;13.30;;;4.70;;
29280;SDS011;25048;49.590;11.026;2024-01-10T04:14:35;11.33;;;4.70;;
29280;SDS011;25048;49.590;11.026;2024-01-10T04:17:03;16.77;;;5.20;;
29280;SDS011;25048;49.590;11.026;2024-01-10T04:19:32;11.67;;;4.77;;
29280;SDS011;25048;49.590;11.026;2024-01-10T04:22:00;15.40;;;5.17;;
29280;SDS011;25048;49.590;11.026;2024-01-10T04:24:28;10.23;;;4.97;;
29280;SDS011;25048;49.590;11.026;2024-01-10T04:26:55;18.97;;;5.37;;
29280;SDS011;25048;49.590;11.026;2024-01-10T04:29:23;13.00;;;5.00;;
29280;SDS011;25048;49.590;11.026;2024-01-10T04:31:50;12.47;;;5.07;;
29280;SDS011;25048;49.590;11.026;2024-01-10T04:34:18;12.10;;;5.30;;
29280;SDS011;25048;49.590;11.026;2024-01-10T04:36:45;10.70;;;4.83;;
29280;SDS011;25048;49.590;11.026;2024-01-10T04:39:13;9.93;;;4.87;;
29280;SDS011;25048;49.590;11.026;2024-01-10T04:41:40;12.63;;;4.73;;
29280;SDS011;25048;49.590;11.026;2024-01-10T04:44:08;12.90;;;5.30;;
29280;SDS011;25048;49.590;11.026;2024-01-10T04:46:35;11.10;;;4.70;;
29280;SDS011;25048;49.590;11.026;2024-01-10T04:49:03;16.77;;;6.63;;
29280;SDS011;25048;49.590;11.026;2024-01-10T04:51:30;11.97;;;5.13;;
29280;SDS011;25048;49.590;11.026;2024-01-10T04:53:58;11.50;;;4.77;;
29280;SDS011;25048;49.590;11.026;2024-01-10T04:56:26;13.13;;;5.53;;
29280;SDS011;25048;49.590;11.026;2024-01-10T04:58:53;11.93;;;4.73;;
29280;SDS011;25048;49.590;11.026;2024-01-10T05:01:20;15.07;;;5.33;;
29280;SDS011;25048;49.590;11.026;2024-01-10T05:03:49;14.17;;;4.73;;
29280;SDS011;25048;49.590;11.026;2024-01-10T05:06:16;13.30;;;4.90;;
29280;SDS011;25048;49.590;11.026;2024-01-10T05:08:44;14.17;;;5.17;;
29280;SDS011;25048;49.590;11.026;2024-01-10T05:11:12;14.73;;;5.03;;
29280;SDS011;25048;49.590;11.026;2024-01-10T05:13:40;14.37;;;6.10;;
29280;SDS011;25048;49.590;11.026;2024-01-10T05:16:09;17.63;;;5.23;;
29280;SDS011;25048;49.590;11.026;2024-01-10T05:18:37;10.83;;;4.90;;
29280;SDS011;25048;49.590;11.026;2024-01-10T05:21:05;13.10;;;5.40;;
29280;SDS011;25048;49.590;11.026;2024-01-10T05:23:32;14.23;;;5.17;;
29280;SDS011;25048;49.590;11.026;2024-01-10T05:26:00;14.47;;;6.00;;
29280;SDS011;25048;49.590;11.026;2024-01-10T05:28:27;19.27;;;6.07;;
29280;SDS011;25048;49.590;11.026;2024-01-10T05:30:55;11.10;;;5.33;;
29280;SDS011;25048;49.590;11.026;2024-01-10T05:33:23;15.77;;;5.47;;
29280;SDS011;25048;49.590;11.026;2024-01-10T05:35:50;14.60;;;5.97;;
29280;SDS011;25048;49.590;11.026;2024-01-10T05:38:18;13.03;;;5.47;;
29280;SDS011;25048;49.590;11.026;2024-01-10T05:40:46;13.23;;;5.80;;
29280;SDS011;25048;49.590;11.026;2024-01-10T05:43:13;11.70;;;5.47;;
29280;SDS011;25048;49.590;11.026;2024-01-10T05:45:41;14.37;;;5.53;;
29280;SDS011;25048;49.590;11.026;2024-01-10T05:48:09;12.67;;;5.57;;
29280;SDS011;25048;49.590;11.026;2024-01-10T05:50:36;16.13;;;6.23;;
29280;SDS011;25048;49.590;11.026;2024-01-10T05:53:05;15.43;;;6.33;;
29280;SDS011;25048;49.590;11.026;2024-01-10T05:55:33;16.70;;;5.57;;
29280;SDS011;25048;49.590;11.026;2024-01-10T05:58:02;15.37;;;6.27;;
29280;SDS011;25048;49.590;11.026;2024-01-10T06:00:30;14.97;;;5.97;;
29280;SDS011;25048;49.590;11.026;2024-01-10T06:02:57;14.57;;;6.07;;
29280;SDS011;25048;49.590;11.026;2024-01-10T06:05:25;12.13;;;5.53;;
29280;SDS011;25048;49.590;11.026;2024-01-10T06:07:52;15.03;;;6.47;;
29280;SDS011;25048;49.590;11.026;2024-01-10T06:10:20;20.03;;;7.37;;
29280;SDS011;25048;49.590;11.026;2024-01-10T06:12:47;14.63;;;5.57;;
29280;SDS011;25048;49.590;11.026;2024-01-10T06:15:15;15.47;;;6.10;;
29280;SDS011;25048;49.590;11.026;2024-01-10T06:17:43;19.07;;;6.83;;
29280;SDS011;25048;49.590;11.026;2024-01-10T06:20:10;16.57;;;6.70;;
29280;SDS011;25048;49.590;11.026;2024-01-10T06:22:38;16.97;;;6.33;;
29280;SDS011;25048;49.590;11.026;2024-01-10T06:25:05;17.17;;;6.43;;
29280;SDS011;25048;49.590;11.026;2024-01-10T06:27:33;17.00;;;6.10;;
29280;SDS011;25048;49.590;11.026;2024-01-10T06:30:01;15.33;;;6.50;;
29280;SDS011;25048;49.590;11.026;2024-01-10T06:32:29;16.00;;;6.47;;
29280;SDS011;25048;49.590;11.026;2024-01-10T06:34:56;16.23;;;6.73;;
29280;SDS011;25048;49.590;11.026;2024-01-10T06:37:24;16.00;;;6.37;;
29280;SDS011;25048;49.590;11.026;2024-01-10T06:39:51;19.90;;;6.80;;
29280;SDS011;25048;49.590;11.026;2024-01-10T06:42:19;19.73;;;7.87;;
29280;SDS011;25048;49.590;11.026;2024-01-10T06:44:46;16.17;;;6.73;;
29280;SDS011;25048;49.590;11.026;2024-01-10T06:47:14;18.67;;;7.10;;
29280;SDS011;25048;49.590;11.026;2024-01-10T06:49:41;16.87;;;7.27;;
29280;SDS011;25048;49.590;11.026;2024-01-10T06:52:09;18.63;;;7.63;;
29280;SDS011;25048;49.590;11.026;2024-01-10T06:54:36;16.87;;;6.67;;
29280;SDS011;25048;49.590;11.026;2024-01-10T06:57:04;16.87;;;6.77;;
29280;SDS011;25048;49.590;11.026;2024-01-10T06:59:31;16.60;;;6.83;;
29280;SDS011;25048;49.590;11.026;2024-01-10T07:01:59;18.93;;;6.53;;
29280;SDS011;25048;49.590;11.026;2024-01-10T07:04:27;13.40;;;6.03;;
29280;SDS011;25048;49.590;11.026;2024-01-10T07:06:55;20.70;;;6.87;;
29280;SDS011;25048;49.590;11.026;2024-01-10T07:09:23;14.73;;;6.53;;
29280;SDS011;25048;49.590;11.026;2024-01-10T07:11:50;18.00;;;7.00;;
29280;SDS011;25048;49.590;11.026;2024-01-10T07:14:18;17.37;;;7.17;;
29280;SDS011;25048;49.590;11.026;2024-01-10T07:16:46;15.30;;;6.47;;
29280;SDS011;25048;49.590;11.026;2024-01-10T07:19:14;19.57;;;6.57;;
29280;SDS011;25048;49.590;11.026;2024-01-10T07:21:42;19.73;;;6.27;;
29280;SDS011;25048;49.590;11.026;2024-01-10T07:24:10;17.50;;;5.93;;
29280;SDS011;25048;49.590;11.026;2024-01-10T07:26:38;13.83;;;6.30;;
29280;SDS011;25048;49.590;11.026;2024-01-10T07:29:05;16.50;;;6.43;;
29280;SDS011;25048;49.590;11.026;2024-01-10T07:31:34;13.60;;;5.63;;
29280;SDS011;25048;49.590;11.026;2024-01-10T07:34:02;14.03;;;6.03;;
29280;SDS011;25048;49.590;11.026;2024-01-10T07:36:32;15.00;;;6.20;;
29280;SDS011;25048;49.590;11.026;2024-01-10T07:39:00;17.97;;;6.33;;
29280;SDS011;25048;49.590;11.026;2024-01-10T07:41:28;15.80;;;6.47;;
29280;SDS011;25048;49.590;11.026;2024-01-10T07:43:55;19.23;;;6.33;;
29280;SDS011;25048;49.590;11.026;2024-01-10T07:46:23;10.90;;;5.17;;
29280;SDS011;25048;49.590;11.026;2024-01-10T07:48:52;14.50;;;5.37;;
29280;SDS011;25048;49.590;11.026;2024-01-10T07:51:20;13.83;;;5.83;;
29280;SDS011;25048;49.590;11.026;2024-01-10T07:53:47;19.40;;;7.47;;
29280;SDS011;25048;49.590;11.026;2024-01-10T07:56:15;15.13;;;5.83;;
29280;SDS011;25048;49.590;11.026;2024-01-10T07:58:43;15.37;;;6.37;;
29280;SDS011;25048;49.590;11.026;2024-01-10T08:01:11;15.40;;;6.13;;
29280;SDS011;25048;49.590;11.026;2024-01-10T08:03:39;13.20;;;5.50;;
29280;SDS011;25048;49.590;11.026;2024-01-10T08:06:06;17.07;;;6.20;;
29280;SDS011;25048;49.590;11.026;2024-01-10T08:08:34;17.10;;;6.83;;
29280;SDS011;25048;49.590;11.026;2024-01-10T08:11:02;15.47;;;6.20;;
29280;SDS011;25048;49.590;11.026;2024-01-10T08:13:29;15.20;;;5.73;;
29280;SDS011;25048;49.590;11.026;2024-01-10T08:15:57;16.07;;;6.23;;
29280;SDS011;25048;49.590;11.026;2024-01-10T08:18:25;19.47;;;6.83;;
29280;SDS011;25048;49.590;11.026;2024-01-10T08:20:52;18.07;;;6.10;;
29280;SDS011;25048;49.590;11.026;2024-01-10T08:23:20;16.60;;;6.77;;
29280;SDS011;25048;49.590;11.026;2024-01-10T08:25:48;18.07;;;6.30;;
29280;SDS011;25048;49.590;11.026;2024-01-10T08:28:16;17.17;;;6.17;;
29280;SDS011;25048;49.590;11.026;2024-01-10T08:30:43;17.10;;;7.00;;
29280;SDS011;25048;49.590;11.026;2024-01-10T08:33:11;18.67;;;7.47;;
29280;SDS011;25048;49.590;11.026;2024-01-10T08:35:38;17.37;;;6.77;;
29280;SDS011;25048;49.590;11.026;2024-01-10T08:38:07;16.27;;;7.13;;
29280;SDS011;25048;49.590;11.026;2024-01-10T08:40:35;19.17;;;7.60;;
29280;SDS011;25048;49.590;11.026;2024-01-10T08:43:03;16.17;;;7.27;;
29280;SDS011;25048;49.590;11.026;2024-01-10T08:45:31;21.93;;;7.50;;
29280;SDS011;25048;49.590;11.026;2024-01-10T08:47:58;16.03;;;7.47;;
29280;SDS011;25048;49.590;11.026;2024-01-10T08:50:25;16.87;;;7.20;;
29280;SDS011;25048;49.590;11.026;2024-01-10T08:52:53;19.07;;;7.23;;
29280;SDS011;25048;49.590;11.026;2024-01-10T08:55:20;17.43;;;8.03;;
29280;SDS011;25048;49.590;11.026;2024-01-10T08:57:48;23.83;;;8.50;;
29280;SDS011;25048;49.590;11.026;2024-01-10T09:00:16;22.13;;;8.77;;
29280;SDS011;25048;49.590;11.026;2024-01-10T09:02:43;22.97;;;7.73;;
29280;SDS011;25048;49.590;11.026;2024-01-10T09:05:11;22.30;;;7.97;;
29280;SDS011;25048;49.590;11.026;2024-01-10T09:07:38;18.13;;;8.50;;
29280;SDS011;25048;49.590;11.026;2024-01-10T09:10:08;20.03;;;8.10;;
29280;SDS011;25048;49.590;11.026;2024-01-10T09:12:36;18.60;;;7.87;;
29280;SDS011;25048;49.590;11.026;2024-01-10T09:15:04;19.47;;;7.97;;
29280;SDS011;25048;49.590;11.026;2024-01-10T09:17:33;20.67;;;8.10;;
29280;SDS011;25048;49.590;11.026;2024-01-10T09:20:01;22.20;;;8.67;;
29280;SDS011;25048;49.590;11.026;2024-01-10T09:22:29;27.83;;;8.43;;
29280;SDS011;25048;49.590;11.026;2024-01-10T09:24:56;22.73;;;8.73;;
29280;SDS011;25048;49.590;11.026;2024-01-10T09:27:25;23.67;;;8.17;;
29280;SDS011;25048;49.590;11.026;2024-01-10T09:29:53;17.10;;;7.33;;
29280;SDS011;25048;49.590;11.026;2024-01-10T09:32:20;18.97;;;8.07;;
29280;SDS011;25048;49.590;11.026;2024-01-10T09:34:48;21.67;;;8.80;;
29280;SDS011;25048;49.590;11.026;2024-01-10T09:37:15;19.97;;;8.40;;
29280;SDS011;25048;49.590;11.026;2024-01-10T09:39:43;18.33;;;8.17;;
29280;SDS011;25048;49.590;11.026;2024-01-10T09:42:10;24.80;;;9.30;;
29280;SDS011;25048;49.590;11.026;2024-01-10T09:44:38;22.07;;;9.40;;
29280;SDS011;25048;49.590;11.026;2024-01-10T09:47:06;19.50;;;8.60;;
29280;SDS011;25048;49.590;11.026;2024-01-10T09:49:34;20.57;;;9.00;;
29280;SDS011;25048;49.590;11.026;2024-01-10T09:52:03;22.87;;;8.37;;
29280;SDS011;25048;49.590;11.026;2024-01-10T09:54:33;21.90;;;8.83;;
29280;SDS011;25048;49.590;11.026;2024-01-10T09:57:02;18.33;;;8.00;;
29280;SDS011;25048;49.590;11.026;2024-01-10T09:59:31;27.57;;;8.83;;
29280;SDS011;25048;49.590;11.026;2024-01-10T10:01:59;20.43;;;8.77;;
29280;SDS011;25048;49.590;11.026;2024-01-10T10:04:30;20.37;;;9.13;;
29280;SDS011;25048;49.590;11.026;2024-01-10T10:06:58;22.27;;;9.20;;
29280;SDS011;25048;49.590;11.026;2024-01-10T10:09:30;28.07;;;10.07;;
29280;SDS011;25048;49.590;11.026;2024-01-10T10:11:58;20.97;;;8.57;;
29280;SDS011;25048;49.590;11.026;2024-01-10T10:14:27;20.43;;;9.40;;
29280;SDS011;25048;49.590;11.026;2024-01-10T10:16:56;23.27;;;9.40;;
29280;SDS011;25048;49.590;11.026;2024-01-10T10:19:26;22.83;;;10.10;;
29280;SDS011;25048;49.590;11.026;2024-01-10T10:21:54;23.60;;;10.03;;
29280;SDS011;25048;49.590;11.026;2024-01-10T10:24:24;21.53;;;9.73;;
29280;SDS011;25048;49.590;11.026;2024-01-10T10:26:52;24.33;;;9.93;;
29280;SDS011;25048;49.590;11.026;2024-01-10T10:29:21;23.93;;;9.87;;
29280;SDS011;25048;49.590;11.026;2024-01-10T10:31:48;24.97;;;10.87;;
29280;SDS011;25048;49.590;11.026;2024-01-10T10:34:17;26.20;;;10.20;;
29280;SDS011;25048;49.590;11.026;2024-01-10T10:36:51;22.63;;;9.83;;
29280;SDS011;25048;49.590;11.026;2024-01-10T10:39:18;24.30;;;10.10;;
29280;SDS011;25048;49.590;11.026;2024-01-10T10:41:46;21.90;;;9.17;;
29280;SDS011;25048;49.590;11.026;2024-01-10T10:44:17;21.33;;;9.63;;
29280;SDS011;25048;49.590;11.026;2024-01-10T10:46:49;23.00;;;9.83;;
29280;SDS011;25048;49.590;11.026;2024-01-10T10:49:18;22.83;;;8.70;;
29280;SDS011;25048;49.590;11.026;2024-01-10T10:51:49;22.43;;;10.13;;
29280;SDS011;25048;49.590;11.026;2024-01-10T10:54:17;22.87;;;10.03;;
29280;SDS011;25048;49.590;11.026;2024-01-10T10:56:46;19.43;;;9.60;;
29280;SDS011;25048;49.590;11.026;2024-01-10T10:59:14;23.83;;;9.70;;
29280;SDS011;25048;49.590;11.026;2024-01-10T11:01:43;20.60;;;10.03;;
29280;SDS011;25048;49.590;11.026;2024-01-10T11:04:13;25.93;;;9.80;;
29280;SDS011;25048;49.590;11.026;2024-01-10T11:06:41;19.63;;;8.73;;
29280;SDS011;25048;49.590;11.026;2024-01-10T11:09:09;21.53;;;10.07;;
29280;SDS011;25048;49.590;11.026;2024-01-10T11:17:10;25.37;;;10.13;;
29280;SDS011;25048;49.590;11.026;2024-01-10T11:19:43;22.27;;;10.27;;
29280;SDS011;25048;49.590;11.026;2024-01-10T11:22:35;24.70;;;10.20;;
29280;SDS011;25048;49.590;11.026;2024-01-10T11:24:58;26.00;;;10.53;;
29280;SDS011;25048;49.590;11.026;2024-01-10T11:27:26;26.60;;;11.63;;
29280;SDS011;25048;49.590;11.026;2024-01-10T11:29:53;23.50;;;10.43;;
29280;SDS011;25048;49.590;11.026;2024-01-10T11:32:22;22.27;;;9.67;;
29280;SDS011;25048;49.590;11.026;2024-01-10T11:37:27;23.87;;;10.17;;
29280;SDS011;25048;49.590;11.026;2024-01-10T11:40:08;22.13;;;9.33;;
29280;SDS011;25048;49.590;11.026;2024-01-10T11:42:43;22.97;;;10.60;;
29280;SDS011;25048;49.590;11.026;2024-01-10T11:48:02;21.97;;;10.20;;
29280;SDS011;25048;49.590;11.026;2024-01-10T11:50:29;20.30;;;9.40;;
29280;SDS011;25048;49.590;11.026;2024-01-10T11:52:57;21.93;;;9.07;;
29280;SDS011;25048;49.590;11.026;2024-01-10T11:58:14;24.63;;;10.97;;
29280;SDS011;25048;49.590;11.026;2024-01-10T12:00:43;26.13;;;10.50;;
29280;SDS011;25048;49.590;11.026;2024-01-10T12:03:13;18.93;;;9.37;;
29280;SDS011;25048;49.590;11.026;2024-01-10T12:05:42;21.30;;;9.67;;
29280;SDS011;25048;49.590;11.026;2024-01-10T12:08:09;22.93;;;9.67;;
29280;SDS011;25048;49.590;11.026;2024-01-10T12:10:37;20.93;;;10.10;;
29280;SDS011;25048;49.590;11.026;2024-01-10T12:13:05;22.60;;;10.10;;
29280;SDS011;25048;49.590;11.026;2024-01-10T12:15:32;20.83;;;10.57;;
29280;SDS011;25048;49.590;11.026;2024-01-10T12:18:00;23.83;;;10.03;;
29280;SDS011;25048;49.590;11.026;2024-01-10T12:20:28;21.13;;;9.73;;
29280;SDS011;25048;49.590;11.026;2024-01-10T12:22:56;21.57;;;10.20;;
29280;SDS011;25048;49.590;11.026;2024-01-10T12:25:23;22.90;;;9.93;;
29280;SDS011;25048;49.590;11.026;2024-01-10T12:27:51;22.20;;;9.87;;
29280;SDS011;25048;49.590;11.026;2024-01-10T12:30:18;22.83;;;9.73;;
29280;SDS011;25048;49.590;11.026;2024-01-10T12:32:50;24.87;;;9.87;;
29280;SDS011;25048;49.590;11.026;2024-01-10T12:35:17;20.10;;;9.60;;
29280;SDS011;25048;49.590;11.026;2024-01-10T12:37:55;22.97;;;10.07;;
29280;SDS011;25048;49.590;11.026;2024-01-10T12:40:23;24.00;;;10.03;;
29280;SDS011;25048;49.590;11.026;2024-01-10T12:43:01;24.27;;;9.97;;
29280;SDS011;25048;49.590;11.026;2024-01-10T12:45:29;22.10;;;9.50;;
29280;SDS011;25048;49.590;11.026;2024-01-10T12:47:57;26.43;;;10.40;;
29280;SDS011;25048;49.590;11.026;2024-01-10T12:50:25;20.57;;;9.30;;
29280;SDS011;25048;49.590;11.026;2024-01-10T12:52:52;22.00;;;10.20;;
29280;SDS011;25048;49.590;11.026;2024-01-10T12:55:20;21.03;;;9.30;;
29280;SDS011;25048;49.590;11.026;2024-01-10T12:57:48;18.63;;;9.03;;
29280;SDS011;25048;49.590;11.026;2024-01-10T13:00:16;20.63;;;8.97;;
29280;SDS011;25048;49.590;11.026;2024-01-10T13:02:44;21.33;;;9.17;;
29280;SDS011;25048;49.590;11.026;2024-01-10T13:05:12;16.97;;;8.67;;
29280;SDS011;25048;49.590;11.026;2024-01-10T13:07:40;25.63;;;9.37;;
29280;SDS011;25048;49.590;11.026;2024-01-10T13:10:08;24.50;;;10.57;;
29280;SDS011;25048;49.590;11.026;2024-01-10T13:12:36;18.67;;;9.37;;
29280;SDS011;25048;49.590;11.026;2024-01-10T13:15:03;21.43;;;10.00;;
29280;SDS011;25048;49.590;11.026;2024-01-10T13:17:31;22.73;;;10.00;;
29280;SDS011;25048;49.590;11.026;2024-01-10T13:19:58;21.07;;;9.37;;
29280;SDS011;25048;49.590;11.026;2024-01-10T13:22:26;22.53;;;10.37;;
29280;SDS011;25048;49.590;11.026;2024-01-10T13:24:54;23.90;;;9.37;;
29280;SDS011;25048;49.590;11.026;2024-01-10T13:27:21;24.00;;;8.87;;
29280;SDS011;25048;49.590;11.026;2024-01-10T13:29:49;19.23;;;9.37;;
29280;SDS011;25048;49.590;11.026;2024-01-10T13:32:16;20.43;;;8.90;;
29280;SDS011;25048;49.590;11.026;2024-01-10T13:34:44;23.13;;;10.27;;
29280;SDS011;25048;49.590;11.026;2024-01-10T13:37:11;18.60;;;9.63;;
29280;SDS011;25048;49.590;11.026;2024-01-10T13:39:40;21.47;;;8.90;;
29280;SDS011;25048;49.590;11.026;2024-01-10T13:42:08;19.93;;;9.27;;
29280;SDS011;25048;49.590;11.026;2024-01-10T13:44:38;25.93;;;9.70;;
29280;SDS011;25048;49.590;11.026;2024-01-10T13:47:06;20.97;;;9.83;;
29280;SDS011;25048;49.590;11.026;2024-01-10T13:49:33;19.57;;;8.77;;
29280;SDS011;25048;49.590;11.026;2024-01-10T13:52:01;23.03;;;9.40;;
29280;SDS011;25048;49.590;11.026;2024-01-10T13:54:28;19.13;;;8.83;;
29280;SDS011;25048;49.590;11.026;2024-01-10T13:56:56;18.97;;;8.70;;
29280;SDS011;25048;49.590;11.026;2024-01-10T13:59:23;20.67;;;8.73;;
29280;SDS011;25048;49.590;11.026;2024-01-10T14:01:51;18.37;;;8.33;;
29280;SDS011;25048;49.590;11.026;2024-01-10T14:04:18;19.77;;;9.23;;
29280;SDS011;25048;49.590;11.026;2024-01-10T14:06:46;17.27;;;8.13;;
29280;SDS011;25048;49.590;11.026;2024-01-10T14:09:13;17.30;;;7.93;;
29280;SDS011;25048;49.590;11.026;2024-01-10T14:11:41;18.30;;;9.00;;
29280;SDS011;25048;49.590;11.026;2024-01-10T14:14:10;22.97;;;9.17;;
29280;SDS011;25048;49.590;11.026;2024-01-10T14:16:37;23.00;;;9.67;;
29280;SDS011;25048;49.590;11.026;2024-01-10T14:19:07;21.90;;;9.17;;
29280;SDS011;25048;49.590;11.026;2024-01-10T14:21:34;19.13;;;8.67;;
29280;SDS011;25048;49.590;11.026;2024-01-10T14:24:02;19.23;;;9.10;;
29280;SDS011;25048;49.590;11.026;2024-01-10T14:26:29;22.93;;;8.50;;
29280;SDS011;25048;49.590;11.026;2024-01-10T14:28:57;19.67;;;8.40;;
29280;SDS011;25048;49.590;11.026;2024-01-10T14:31:25;20.00;;;9.57;;
29280;SDS011;25048;49.590;11.026;2024-01-10T14:33:53;20.63;;;8.93;;
29280;SDS011;25048;49.590;11.026;2024-01-10T14:36:20;21.23;;;8.87;;
29280;SDS011;25048;49.590;11.026;2024-01-10T14:38:48;21.57;;;9.00;;